KDEW

Deer Park Airport

Deer Park, Washington, USA
METAR KDEW 131053Z AUTO 18012KT 10SM OVC039 02/M03 A3015 RMK AO2 SLP228 T00221028
Observed Flight Rules
Dec-13 @ 10:53 UTC (28 minutes ago) Visual Flight Rules
Wind Visibility Clouds
180° at 12 knots 10 miles
  • Overcast at 3,900' AGL
Temperatures Readings
Current 2°C / 36°F
Dewpoint -3°C / 27°F
Humidity 70%
Altimeter 30.15" Hg
Pressure 1022.8 hPa
Elevation 674
METAR KDEW 131053Z AUTO 18012KT 10SM OVC039 02/M03 A3015 RMK AO2 SLP228 T00221028
Observed Flight Rules
Dec-13 @ 10:53 UTC
(28 minutes ago)
VFR
Wind Visibility
180° at 12 knots 10 miles
Clouds
  • Overcast at 3,900' AGL
Temperature Dewpoint
2°C / 36°F -3°C / 27°F
Humidity Altimeter Pressure
70% 30.15" Hg 1022.8 hPa